Terminal Aerodrome Forecast
Issued by NWS Sioux Falls, SD

Home | Current Version | Previous Version | Graphics & Text | Print | Product List | Glossary On
Versions: 1 2 3 4 5 6 7 8 9 10 11 12 13 14 15 16
632
FTUS43 KFSD 180527
TAFHON
TAF
KHON 180527Z 1806/1906 12006KT P6SM SCT100 OVC200
     FM180900 14006KT P6SM SCT100
     FM181400 23004KT P6SM SCT150
     FM181800 31008KT P6SM FEW250
     FM182300 35010KT P6SM FEW080=

USA.gov is the U.S. government's official web portal to all federal, state and local government web resources and services.